Time;durP1;ratioP1;P1;durP2;ratioP2;P2;SDS_P1;SDS_P2;PMS_P1;PMS_P2;Temp;Humidity;BMP_temperature;BMP_pressure;BME280_temperature;BME280_humidity;BME280_pressure;Samples;Min_cycle;Max_cycle;Signal;HPM_P1;HPM_P2
2021/10/20 00:01:48;;;;;;;;;;;;;;;11.22;91.19;100327.79;1637830;87;21050;-79
2021/10/20 00:04:15;;;;;;;;;;;;;;;11.27;91.11;100317.56;1637049;87;20287;-79
2021/10/20 00:06:41;;;;;;;;;;;;;;;11.22;91.08;100320.67;1636193;86;20504;-79
2021/10/20 00:09:07;;;;;;;;;;;;;;;11.22;91.17;100312.75;1651721;85;20122;-79
2021/10/20 00:11:32;;;;;;;;;;;;;;;11.26;90.95;100307.97;1655333;85;20190;-79
2021/10/20 00:13:58;;;;;;;;;;;;;;;11.22;90.81;100310.10;1658174;85;21123;-80
2021/10/20 00:16:24;;;;;;;;;;;;;;;11.24;90.90;100304.16;1666542;85;20487;-79
2021/10/20 00:18:50;;;;;;;;;;;;;;;11.30;90.57;100301.39;1658783;85;20474;-80
2021/10/20 00:21:20;;;;;;;;;;;;;;;11.36;90.83;100307.38;1664407;85;20166;-80
2021/10/20 00:23:45;;;;;;;;;;;;;;;11.39;90.45;100304.41;1667409;85;20192;-81
2021/10/20 00:26:10;;;;;;;;;;;;;;;11.42;90.07;100297.48;1660192;85;21094;-81
2021/10/20 00:28:36;;;;;;;;;;;;;;;11.54;90.16;100285.30;1660763;85;20283;-81
2021/10/20 00:31:02;;;;;;;;;;;;;;;11.61;89.60;100290.30;1662122;85;20154;-82
2021/10/20 00:33:27;;;;;;;;;;;;;;;11.61;89.33;100283.69;1659148;85;20139;-81
2021/10/20 00:35:53;;;;;;;;;;;;;;;11.54;89.46;100280.01;1660447;85;20260;-81
2021/10/20 00:38:18;;;;;;;;;;;;;;;11.49;89.52;100276.02;1659676;85;21178;-81
2021/10/20 00:40:45;;;;;;;;;;;;;;;11.53;89.89;100275.22;1660439;85;20173;-82
2021/10/20 00:43:11;;;;;;;;;;;;;;;11.58;89.47;100274.75;1662278;85;20195;-81
2021/10/20 00:45:36;;;;;;;;;;;;;;;11.60;89.32;100274.08;1658323;85;20763;-80
2021/10/20 00:48:02;;;;;;;;;;;;;;;11.63;89.72;100267.15;1663097;85;20156;-81
2021/10/20 00:50:28;;;;;;;;;;;;;;;11.58;89.39;100266.81;1657128;85;21230;-81
2021/10/20 00:52:54;;;;;;;;;;;;;;;11.48;89.86;100258.52;1655914;85;20139;-80
2021/10/20 00:55:21;;;;;;;;;;;;;;;11.41;90.33;100251.38;1641536;85;20150;-81
2021/10/20 00:57:47;;;;;;;;;;;;;;;11.32;90.49;100241.24;1662038;85;20282;-79
2021/10/20 01:00:15;;;;;;;;;;;;;;;11.27;90.86;100243.55;1658254;85;20547;-79
2021/10/20 01:02:43;;;;;;;;;;;;;;;11.26;91.02;100231.30;1660762;85;21802;-80
2021/10/20 01:05:09;;;;;;;;;;;;;;;11.11;91.69;100227.94;1660030;84;21065;-79
2021/10/20 01:07:38;;;;;;;;;;;;;;;11.12;91.77;100216.39;1658970;85;20119;-80
2021/10/20 01:10:04;;;;;;;;;;;;;;;11.13;91.72;100224.64;1661241;85;20856;-80
2021/10/20 01:12:31;;;;;;;;;;;;;;;11.10;91.95;100222.31;1664670;85;20947;-79
2021/10/20 01:14:59;;;;;;;;;;;;;;;11.20;91.43;100217.39;1656904;85;21369;-81
2021/10/20 01:17:25;;;;;;;;;;;;;;;11.23;91.20;100213.11;1659462;85;20481;-82
2021/10/20 01:19:50;;;;;;;;;;;;;;;11.19;91.23;100214.44;1660413;85;20566;-81
2021/10/20 01:22:16;;;;;;;;;;;;;;;11.20;91.35;100208.14;1659838;85;20454;-82
2021/10/20 01:24:42;;;;;;;;;;;;;;;11.21;91.31;100207.98;1661396;85;20184;-82
2021/10/20 01:27:07;;;;;;;;;;;;;;;11.26;90.92;100210.16;1660418;85;21104;-82
2021/10/20 01:29:33;;;;;;;;;;;;;;;11.34;90.86;100192.98;1661315;85;20242;-83
2021/10/20 01:32:01;;;;;;;;;;;;;;;11.25;90.81;100201.91;1663515;85;20487;-80
2021/10/20 01:34:27;;;;;;;;;;;;;;;11.33;90.86;100199.28;1662541;85;20191;-82
2021/10/20 01:36:54;;;;;;;;;;;;;;;11.41;90.35;100190.05;1667506;85;20178;-82
2021/10/20 01:39:23;;;;;;;;;;;;;;;11.34;90.49;100177.63;1660543;85;21177;-82
2021/10/20 01:41:48;;;;;;;;;;;;;;;11.41;90.56;100178.16;1661920;85;20172;-82
2021/10/20 01:44:14;;;;;;;;;;;;;;;11.44;90.31;100174.37;1665030;85;20371;-81
2021/10/20 01:46:40;;;;;;;;;;;;;;;11.40;90.38;100171.20;1665249;85;20239;-81
2021/10/20 01:49:05;;;;;;;;;;;;;;;11.28;91.10;100172.52;1659287;85;20131;-81
2021/10/20 01:51:31;;;;;;;;;;;;;;;11.38;90.77;100171.86;1658933;85;22020;-81
2021/10/20 01:53:57;;;;;;;;;;;;;;;11.45;90.95;100167.59;1631678;85;20162;-81
2021/10/20 01:56:22;;;;;;;;;;;;;;;11.47;90.76;100173.55;1660009;85;20138;-81
2021/10/20 01:58:48;;;;;;;;;;;;;;;11.48;90.69;100175.20;1661884;85;20174;-82
2021/10/20 02:01:13;;;;;;;;;;;;;;;11.49;90.91;100173.38;1660461;85;20739;-81
2021/10/20 02:03:42;;;;;;;;;;;;;;;11.54;90.71;100176.86;1663166;85;21027;-79
2021/10/20 02:06:14;;;;;;;;;;;;;;;11.52;90.73;100173.56;1659625;85;20166;-81
2021/10/20 02:08:43;;;;;;;;;;;;;;;11.56;90.47;100166.94;1664236;85;20463;-82
2021/10/20 02:11:10;;;;;;;;;;;;;;;11.59;90.48;100173.23;1660855;85;20207;-82
2021/10/20 02:13:36;;;;;;;;;;;;;;;11.61;90.43;100168.63;1664315;85;20129;-82
2021/10/20 02:16:07;;;;;;;;;;;;;;;11.61;90.17;100172.09;1634147;85;21094;-81
2021/10/20 02:18:33;;;;;;;;;;;;;;;11.63;90.53;100169.28;1658799;85;20486;-81
2021/10/20 02:20:58;;;;;;;;;;;;;;;11.72;90.72;100166.98;1664073;85;20534;-81
2021/10/20 02:23:24;;;;;;;;;;;;;;;11.75;90.90;100157.40;1656321;85;20115;-80
2021/10/20 02:25:51;;;;;;;;;;;;;;;11.84;91.15;100153.77;1661366;85;20163;-80
2021/10/20 02:28:17;;;;;;;;;;;;;;;11.87;92.09;100160.56;1657061;85;21300;-80
2021/10/20 02:30:44;;;;;;;;;;;;;;;11.89;93.05;100147.17;1659790;85;20471;-80
2021/10/20 02:33:10;;;;;;;;;;;;;;;11.90;93.67;100141.71;1659269;85;20142;-81
2021/10/20 02:35:38;;;;;;;;;;;;;;;11.86;94.10;100143.02;1660890;85;20126;-81
2021/10/20 02:38:04;;;;;;;;;;;;;;;11.86;95.17;100140.38;1663582;85;20185;-78
2021/10/20 02:40:29;;;;;;;;;;;;;;;11.74;95.12;100139.05;1640540;85;21307;-81
2021/10/20 02:42:55;;;;;;;;;;;;;;;11.67;96.07;100132.27;1657486;85;20252;-81
2021/10/20 02:45:24;;;;;;;;;;;;;;;11.65;97.23;100131.11;1663677;85;20250;-81
2021/10/20 02:47:50;;;;;;;;;;;;;;;11.74;97.05;100131.92;1660479;85;20198;-79
2021/10/20 02:50:16;;;;;;;;;;;;;;;11.71;96.88;100136.22;1661452;85;20725;-80
2021/10/20 02:52:43;;;;;;;;;;;;;;;11.66;97.22;100126.13;1661101;85;21169;-79
2021/10/20 02:55:09;;;;;;;;;;;;;;;11.64;97.92;100120.19;1664969;85;21185;-80
2021/10/20 02:57:34;;;;;;;;;;;;;;;11.67;97.46;100112.42;1661584;85;20146;-79
2021/10/20 03:00:02;;;;;;;;;;;;;;;11.59;98.57;100111.08;1664841;85;20148;-80
2021/10/20 03:02:29;;;;;;;;;;;;;;;11.58;99.38;100109.44;1663070;85;20134;-79
2021/10/20 03:04:57;;;;;;;;;;;;;;;11.57;98.69;100107.78;1659482;85;21186;-79
2021/10/20 03:07:24;;;;;;;;;;;;;;;11.50;99.57;100107.11;1629026;85;20328;-78
2021/10/20 03:09:53;;;;;;;;;;;;;;;11.56;99.50;100106.11;1660565;85;20122;-79
2021/10/20 03:12:18;;;;;;;;;;;;;;;11.53;99.70;100091.89;1639223;86;20845;-79
2021/10/20 03:14:48;;;;;;;;;;;;;;;11.62;99.14;100104.13;1636833;87;20128;-80
2021/10/20 03:17:15;;;;;;;;;;;;;;;11.58;99.26;100106.29;1635226;87;20154;-79
2021/10/20 03:19:43;;;;;;;;;;;;;;;11.57;99.53;100098.52;1636646;86;20171;-79
2021/10/20 03:22:11;;;;;;;;;;;;;;;11.57;99.08;100090.08;1638353;86;20137;-79
2021/10/20 03:24:36;;;;;;;;;;;;;;;11.49;99.84;100090.90;1619279;87;20704;-79
2021/10/20 03:27:03;;;;;;;;;;;;;;;11.31;100.00;100088.41;1637215;87;20470;-80
2021/10/20 03:29:29;;;;;;;;;;;;;;;11.34;100.00;100079.81;1632619;87;21163;-79
2021/10/20 03:31:54;;;;;;;;;;;;;;;11.26;100.00;100076.66;1635950;86;20520;-79
2021/10/20 03:34:24;;;;;;;;;;;;;;;11.24;100.00;100073.36;1605980;87;20169;-81
2021/10/20 03:36:51;;;;;;;;;;;;;;;11.23;100.00;100073.02;1632429;87;20497;-81
2021/10/20 03:39:21;;;;;;;;;;;;;;;11.14;100.00;100066.41;1634540;87;20147;-80
2021/10/20 03:41:49;;;;;;;;;;;;;;;11.17;100.00;100062.62;1631280;87;20654;-80
2021/10/20 03:44:15;;;;;;;;;;;;;;;11.09;100.00;100067.39;1639098;87;20183;-80
2021/10/20 03:46:41;;;;;;;;;;;;;;;11.05;100.00;100060.77;1631438;87;20126;-80
2021/10/20 03:49:07;;;;;;;;;;;;;;;11.01;100.00;100044.89;1641372;86;20757;-80
2021/10/20 03:51:32;;;;;;;;;;;;;;;11.08;100.00;100057.80;1620593;87;20112;-80
2021/10/20 03:54:00;;;;;;;;;;;;;;;11.14;100.00;100058.98;1635576;87;21251;-80
2021/10/20 03:56:27;;;;;;;;;;;;;;;11.17;100.00;100055.16;1632782;87;20204;-81
2021/10/20 03:58:53;;;;;;;;;;;;;;;11.12;100.00;100039.79;1634061;87;20205;-80
2021/10/20 04:01:18;;;;;;;;;;;;;;;11.23;100.00;100042.14;1634758;87;20611;-80
2021/10/20 04:03:46;;;;;;;;;;;;;;;11.29;100.00;100045.94;1634983;87;20200;-80
2021/10/20 04:06:13;;;;;;;;;;;;;;;11.13;100.00;100039.63;1635398;87;20160;-80
2021/10/20 04:08:41;;;;;;;;;;;;;;;11.26;100.00;100050.22;1649830;86;20294;-80
2021/10/20 04:11:08;;;;;;;;;;;;;;;11.32;99.91;100052.22;1653177;85;20152;-80
2021/10/20 04:13:36;;;;;;;;;;;;;;;11.31;99.95;100045.27;1662910;85;20173;-80
2021/10/20 04:16:03;;;;;;;;;;;;;;;11.27;99.24;100042.64;1659166;85;20494;-80
2021/10/20 04:18:31;;;;;;;;;;;;;;;11.33;99.65;100034.05;1664784;85;21115;-80
2021/10/20 04:20:57;;;;;;;;;;;;;;;11.50;98.73;100026.45;1655439;85;20191;-80
2021/10/20 04:23:23;;;;;;;;;;;;;;;11.49;98.74;100023.47;1661546;85;20853;-80
2021/10/20 04:25:50;;;;;;;;;;;;;;;11.63;97.98;100029.09;1662356;85;20138;-81
2021/10/20 04:28:17;;;;;;;;;;;;;;;11.68;96.76;100022.33;1660741;85;20568;-81
2021/10/20 04:30:43;;;;;;;;;;;;;;;11.72;96.19;100024.13;1661836;85;21223;-81
2021/10/20 04:33:09;;;;;;;;;;;;;;;11.71;95.85;100021.14;1660018;85;20147;-81
2021/10/20 04:35:35;;;;;;;;;;;;;;;11.76;95.72;100015.36;1662635;85;20233;-81
2021/10/20 04:38:04;;;;;;;;;;;;;;;11.68;95.15;100013.55;1658806;85;20418;-80
2021/10/20 04:40:31;;;;;;;;;;;;;;;11.75;95.10;100011.89;1663764;85;20202;-81
2021/10/20 04:42:57;;;;;;;;;;;;;;;11.73;95.54;100012.56;1659524;85;21370;-81
2021/10/20 04:45:29;;;;;;;;;;;;;;;11.72;95.04;99999.00;1661857;85;20260;-80
2021/10/20 04:48:00;;;;;;;;;;;;;;;11.67;94.60;100002.66;1659489;85;21218;-78
2021/10/20 04:50:33;;;;;;;;;;;;;;;11.61;95.08;99994.88;1663320;85;20159;-81
2021/10/20 04:53:00;;;;;;;;;;;;;;;11.62;95.06;99985.11;1657181;85;20169;-85
2021/10/20 04:55:28;;;;;;;;;;;;;;;11.55;95.63;99982.83;1660147;85;21110;-81
2021/10/20 04:57:53;;;;;;;;;;;;;;;11.47;94.32;99979.19;1636159;85;20168;-84
2021/10/20 05:00:24;;;;;;;;;;;;;;;11.57;95.22;99970.25;1663323;85;20505;-82
2021/10/20 05:02:50;;;;;;;;;;;;;;;11.53;94.52;99976.38;1655684;85;20193;-83
2021/10/20 05:05:16;;;;;;;;;;;;;;;11.58;94.43;99968.77;1663763;85;20309;-84
2021/10/20 05:07:46;;;;;;;;;;;;;;;11.62;94.78;99956.02;1659232;85;21963;-83
2021/10/20 05:10:12;;;;;;;;;;;;;;;11.69;94.15;99959.66;1627199;85;20187;-83
2021/10/20 05:12:42;;;;;;;;;;;;;;;11.74;93.84;99954.67;1665985;85;20116;-83
2021/10/20 05:15:08;;;;;;;;;;;;;;;11.80;93.59;99948.72;1665101;85;20528;-82
2021/10/20 05:17:34;;;;;;;;;;;;;;;11.80;93.22;99954.00;1656934;85;20539;-83
2021/10/20 05:20:00;;;;;;;;;;;;;;;11.80;93.48;99960.62;1661166;85;21157;-83
2021/10/20 05:22:25;;;;;;;;;;;;;;;11.88;93.15;99949.70;1658493;85;20198;-79
2021/10/20 05:24:51;;;;;;;;;;;;;;;11.91;92.63;99944.06;1653467;85;20428;-85
2021/10/20 05:27:20;;;;;;;;;;;;;;;11.93;92.44;99944.74;1663181;85;20157;-82
2021/10/20 05:29:48;;;;;;;;;;;;;;;11.91;91.54;99949.36;1655689;85;20162;-80
2021/10/20 05:32:13;;;;;;;;;;;;;;;11.97;91.20;99945.56;1659833;85;21181;-82
2021/10/20 05:34:39;;;;;;;;;;;;;;;11.88;91.02;99947.05;1662325;85;20185;-80
2021/10/20 05:37:06;;;;;;;;;;;;;;;11.97;91.36;99939.45;1665171;85;20144;-84
2021/10/20 05:39:35;;;;;;;;;;;;;;;12.02;90.89;99936.63;1662982;85;20708;-84
2021/10/20 05:42:02;;;;;;;;;;;;;;;11.96;90.79;99937.31;1663125;85;20192;-86
2021/10/20 05:44:29;;;;;;;;;;;;;;;12.03;91.06;99937.45;1662938;85;21043;-82
2021/10/20 05:46:54;;;;;;;;;;;;;;;12.01;90.58;99936.80;1660008;85;20186;-82
2021/10/20 05:49:22;;;;;;;;;;;;;;;12.01;90.57;99947.39;1663520;85;20161;-83
2021/10/20 05:51:51;;;;;;;;;;;;;;;12.04;90.73;99945.69;1662706;85;20210;-83
2021/10/20 05:54:18;;;;;;;;;;;;;;;12.04;90.88;99949.66;1660852;85;20200;-83
2021/10/20 05:56:47;;;;;;;;;;;;;;;12.06;91.00;99946.84;1664385;85;21255;-85
2021/10/20 05:59:20;;;;;;;;;;;;;;;11.96;91.66;99952.34;1657750;85;20181;-82
2021/10/20 06:01:44;;;;;;;;;;;;;;;11.96;91.75;99952.34;1657646;85;20162;-81
2021/10/20 06:04:09;;;;;;;;;;;;;;;12.02;92.17;99947.70;1631394;85;20214;-80
2021/10/20 06:06:37;;;;;;;;;;;;;;;12.05;92.59;99948.67;1656817;85;20179;-86
2021/10/20 06:09:03;;;;;;;;;;;;;;;12.06;92.70;99935.78;1660673;85;22374;-87
2021/10/20 06:11:28;;;;;;;;;;;;;;;12.05;93.20;99935.44;1663473;84;20226;-82
2021/10/20 06:13:54;;;;;;;;;;;;;;;11.98;94.10;99935.81;1632121;85;20586;-86
2021/10/20 06:16:21;;;;;;;;;;;;;;;12.00;94.23;99936.46;1660522;85;20763;-86
2021/10/20 06:18:46;;;;;;;;;;;;;;;12.11;94.47;99933.44;1639157;85;20254;-85
2021/10/20 06:21:14;;;;;;;;;;;;;;;12.16;94.50;99933.73;1659962;85;21127;-86
2021/10/20 06:23:39;;;;;;;;;;;;;;;12.14;94.92;99934.92;1657284;85;20215;-90
2021/10/20 06:26:05;;;;;;;;;;;;;;;12.13;95.49;99932.76;1661888;85;20484;-84
2021/10/20 06:28:30;;;;;;;;;;;;;;;12.18;95.80;99943.67;1660867;85;20757;-81
2021/10/20 06:30:56;;;;;;;;;;;;;;;12.19;96.25;99950.60;1669475;85;20271;-82
2021/10/20 06:33:22;;;;;;;;;;;;;;;12.20;96.75;99948.80;1664595;85;21008;-85
2021/10/20 06:35:47;;;;;;;;;;;;;;;12.19;97.19;99940.01;1665287;84;20828;-82
2021/10/20 06:38:13;;;;;;;;;;;;;;;12.06;98.41;99941.08;1660710;85;20143;-87
2021/10/20 06:40:40;;;;;;;;;;;;;;;12.12;99.09;99944.36;1658044;85;20115;-87
2021/10/20 06:43:06;;;;;;;;;;;;;;;12.13;99.60;99945.99;1664197;85;20218;-84
2021/10/20 06:45:34;;;;;;;;;;;;;;;12.08;100.00;99934.28;1663069;85;21097;-84
2021/10/20 06:48:00;;;;;;;;;;;;;;;12.09;100.00;99941.21;1664067;85;20182;-79
2021/10/20 06:50:26;;;;;;;;;;;;;;;12.11;100.00;99926.81;1665765;85;20714;-84
2021/10/20 06:52:52;;;;;;;;;;;;;;;12.11;100.00;99937.41;1663965;85;21282;-82
2021/10/20 06:55:18;;;;;;;;;;;;;;;12.11;100.00;99930.79;1663970;85;20156;-83
2021/10/20 06:57:44;;;;;;;;;;;;;;;12.14;100.00;99929.12;1637691;85;22090;-81
2021/10/20 07:00:11;;;;;;;;;;;;;;;12.23;100.00;99929.08;1659474;85;20126;-80
2021/10/20 07:02:36;;;;;;;;;;;;;;;12.32;100.00;99930.69;1658975;85;20182;-81
2021/10/20 07:05:04;;;;;;;;;;;;;;;12.43;100.00;99922.38;1660051;85;20132;-81
2021/10/20 07:07:29;;;;;;;;;;;;;;;12.54;100.00;99914.55;1662662;85;20172;-84
2021/10/20 07:09:55;;;;;;;;;;;;;;;12.62;100.00;99924.27;1659351;85;21224;-84
2021/10/20 07:12:20;;;;;;;;;;;;;;;12.59;100.00;99927.27;1657372;84;21464;-83
2021/10/20 07:14:47;;;;;;;;;;;;;;;12.58;100.00;99909.20;1663348;85;20170;-83
2021/10/20 07:17:12;;;;;;;;;;;;;;;12.66;100.00;99912.30;1657788;85;20518;-80
2021/10/20 07:19:41;;;;;;;;;;;;;;;12.76;100.00;99906.28;1660456;85;20269;-83
2021/10/20 07:22:07;;;;;;;;;;;;;;;12.74;100.00;99901.67;1659905;85;20969;-85
2021/10/20 07:24:32;;;;;;;;;;;;;;;12.72;100.00;99912.44;1662074;85;20182;-85
2021/10/20 07:26:58;;;;;;;;;;;;;;;12.77;100.00;99911.91;1662795;85;20136;-79
2021/10/20 07:29:24;;;;;;;;;;;;;;;12.85;100.00;99916.30;1664193;85;20167;-84
2021/10/20 07:31:49;;;;;;;;;;;;;;;12.92;100.00;99916.74;1665519;85;20156;-87
2021/10/20 07:34:15;;;;;;;;;;;;;;;12.93;100.00;99906.98;1661180;85;21146;-87
2021/10/20 07:36:42;;;;;;;;;;;;;;;12.94;100.00;99908.62;1666184;85;20139;-84
2021/10/20 07:39:11;;;;;;;;;;;;;;;13.01;100.00;99907.42;1657586;84;20155;-88
2021/10/20 07:41:37;;;;;;;;;;;;;;;13.08;100.00;99910.99;1663407;85;20158;-85
2021/10/20 07:44:06;;;;;;;;;;;;;;;13.08;100.00;99899.06;1663122;85;20200;-88
2021/10/20 07:46:32;;;;;;;;;;;;;;;13.14;100.00;99890.39;1636363;85;20489;-86
2021/10/20 07:48:58;;;;;;;;;;;;;;;13.25;100.00;99893.12;1659376;85;20193;-81
2021/10/20 07:51:27;;;;;;;;;;;;;;;13.22;100.00;99897.45;1654167;84;20610;-86
2021/10/20 07:53:53;;;;;;;;;;;;;;;13.36;100.00;99896.71;1666546;85;20184;-83
2021/10/20 07:56:20;;;;;;;;;;;;;;;13.44;100.00;99896.63;1666825;85;20198;-85
2021/10/20 07:58:49;;;;;;;;;;;;;;;13.49;100.00;99893.42;1664846;85;20136;-88
2021/10/20 08:01:15;;;;;;;;;;;;;;;13.53;100.00;99899.19;1662814;85;20314;-84
2021/10/20 08:03:40;;;;;;;;;;;;;;;13.63;100.00;99892.61;1656592;85;20133;-84
2021/10/20 08:06:09;;;;;;;;;;;;;;;13.75;99.42;99890.81;1658108;85;20116;-84
2021/10/20 08:08:35;;;;;;;;;;;;;;;13.75;98.13;99908.06;1661747;85;20201;-84
2021/10/20 08:11:00;;;;;;;;;;;;;;;13.85;98.20;99886.06;1656110;85;21968;-82
2021/10/20 08:13:26;;;;;;;;;;;;;;;14.02;97.29;99887.20;1645303;86;20154;-85
2021/10/20 08:15:51;;;;;;;;;;;;;;;14.14;96.33;99877.75;1645417;87;20215;-85
2021/10/20 08:18:17;;;;;;;;;;;;;;;14.20;95.54;99877.02;1645010;85;20441;-86
2021/10/20 08:20:43;;;;;;;;;;;;;;;14.40;95.01;99872.41;1645275;87;21164;-85
2021/10/20 08:23:08;;;;;;;;;;;;;;;14.45;94.03;99868.67;1645234;87;21039;-85
2021/10/20 08:25:37;;;;;;;;;;;;;;;14.45;93.60;99866.02;1645559;87;20146;-81
2021/10/20 08:28:05;;;;;;;;;;;;;;;14.49;93.52;99870.77;1643983;86;20169;-81
2021/10/20 08:30:32;;;;;;;;;;;;;;;14.56;93.34;99860.23;1644276;87;20219;-82
2021/10/20 08:32:58;;;;;;;;;;;;;;;14.63;93.01;99863.78;1649704;85;20155;-85
2021/10/20 08:35:23;;;;;;;;;;;;;;;14.55;92.47;99870.02;1645959;85;21929;-83
2021/10/20 08:37:54;;;;;;;;;;;;;;;14.70;92.34;99862.02;1626062;86;20138;-80
2021/10/20 08:40:17;;;;;;;;;;;;;;;14.74;92.13;99855.00;1645274;86;20178;-83
2021/10/20 08:42:43;;;;;;;;;;;;;;;14.77;92.06;99851.95;1647777;85;20633;-85
2021/10/20 08:45:09;;;;;;;;;;;;;;;14.81;91.45;99843.93;1645569;87;20138;-85
2021/10/20 08:47:35;;;;;;;;;;;;;;;14.83;91.25;99838.72;1646044;87;21083;-83
2021/10/20 08:50:06;;;;;;;;;;;;;;;14.83;91.33;99832.59;1644536;87;20570;-83
2021/10/20 08:52:32;;;;;;;;;;;;;;;14.94;90.99;99841.36;1645596;87;20474;-83
2021/10/20 08:54:59;;;;;;;;;;;;;;;14.99;90.67;99841.63;1645261;87;20185;-82
2021/10/20 08:57:24;;;;;;;;;;;;;;;14.97;90.34;99840.98;1645311;87;20505;-82
2021/10/20 08:59:50;;;;;;;;;;;;;;;15.05;90.09;99830.19;1645849;86;21022;-81
2021/10/20 09:02:16;;;;;;;;;;;;;;;15.15;89.68;99830.36;1643373;87;20151;-81
2021/10/20 09:04:43;;;;;;;;;;;;;;;15.16;89.17;99825.36;1645813;87;20150;-84
2021/10/20 09:07:14;;;;;;;;;;;;;;;15.22;89.11;99812.10;1646110;87;20216;-83
2021/10/20 09:09:39;;;;;;;;;;;;;;;15.30;88.84;99823.09;1646152;87;20202;-84
2021/10/20 09:12:05;;;;;;;;;;;;;;;15.36;88.58;99824.98;1646392;84;21192;-81
2021/10/20 09:14:30;;;;;;;;;;;;;;;15.48;88.02;99843.08;1646186;87;20290;-81
2021/10/20 09:16:58;;;;;;;;;;;;;;;15.38;87.96;99817.64;1645242;87;20154;-83
2021/10/20 09:19:31;;;;;;;;;;;;;;;15.42;87.78;99816.73;1621444;87;20744;-84
2021/10/20 09:21:57;;;;;;;;;;;;;;;15.53;87.80;99815.36;1644476;87;20136;-83
2021/10/20 09:24:26;;;;;;;;;;;;;;;15.64;87.06;99812.13;1645499;87;21676;-84
2021/10/20 09:26:52;;;;;;;;;;;;;;;15.73;86.72;99816.79;1646474;85;20258;-82
2021/10/20 09:29:24;;;;;;;;;;;;;;;15.73;86.96;99813.61;1646336;85;20563;-83
2021/10/20 09:31:53;;;;;;;;;;;;;;;15.79;86.88;99804.05;1645540;86;21182;-83
2021/10/20 09:34:19;;;;;;;;;;;;;;;15.89;86.34;99805.00;1646117;86;20126;-83
2021/10/20 09:36:48;;;;;;;;;;;;;;;15.87;85.86;99814.52;1645469;86;21168;-83
2021/10/20 09:39:18;;;;;;;;;;;;;;;15.93;85.55;99796.93;1645816;87;20210;-82
2021/10/20 09:41:43;;;;;;;;;;;;;;;16.00;85.41;99791.62;1645026;87;20627;-79
2021/10/20 09:44:13;;;;;;;;;;;;;;;15.98;85.29;99797.14;1645992;87;20135;-83
2021/10/20 09:46:45;;;;;;;;;;;;;;;15.94;85.43;99801.22;1623223;87;20214;-82
2021/10/20 09:49:17;;;;;;;;;;;;;;;16.02;85.44;99797.06;1645453;86;20132;-84
2021/10/20 09:51:44;;;;;;;;;;;;;;;16.14;85.14;99811.44;1643011;87;20128;-83
2021/10/20 09:54:25;;;;;;;;;;;;;;;16.20;84.76;99798.33;1645485;87;20260;-83
2021/10/20 09:56:59;;;;;;;;;;;;;;;16.35;84.10;99797.64;1645221;87;20205;-82
2021/10/20 09:59:27;;;;;;;;;;;;;;;16.44;84.09;99783.62;1644544;87;20199;-83
2021/10/20 10:01:54;;;;;;;;;;;;;;;16.48;83.89;99787.01;1645552;87;21139;-84
2021/10/20 10:04:20;;;;;;;;;;;;;;;16.51;83.47;99789.27;1645907;87;20292;-83
2021/10/20 10:06:55;;;;;;;;;;;;;;;16.60;83.58;99771.73;1774268;79;20205;-83
2021/10/20 10:09:22;;;;;;;;;;;;;;;16.70;83.17;99774.79;1748297;81;20154;-80
2021/10/20 10:11:57;;;;;;;;;;;;;;;16.80;82.31;99775.73;1748485;81;21103;-83
2021/10/20 10:14:30;;;;;;;;;;;;;;;16.83;82.42;99781.46;1714732;81;20134;-80
2021/10/20 10:17:00;;;;;;;;;;;;;;;16.92;82.15;99777.27;1716915;81;20164;-81
2021/10/20 10:19:30;;;;;;;;;;;;;;;16.95;82.02;99774.19;1719444;81;20483;-82
2021/10/20 10:21:58;;;;;;;;;;;;;;;16.95;81.98;99766.19;1721210;81;20105;-83
2021/10/20 10:24:36;;;;;;;;;;;;;;;17.11;81.67;99761.76;1748616;81;21075;-83
2021/10/20 10:27:09;;;;;;;;;;;;;;;17.12;81.07;99760.73;1747020;81;20149;-83
2021/10/20 10:29:53;;;;;;;;;;;;;;;17.27;80.33;99757.81;1748666;81;20488;-83
2021/10/20 10:32:19;;;;;;;;;;;;;;;17.36;80.39;99749.87;1747560;81;20180;-83
2021/10/20 10:34:49;;;;;;;;;;;;;;;17.34;79.94;99743.10;1746208;81;20182;-83
2021/10/20 10:37:26;;;;;;;;;;;;;;;17.29;79.92;99742.92;1746221;81;21932;-84
2021/10/20 10:39:52;;;;;;;;;;;;;;;17.42;80.25;99746.89;1744780;81;20146;-83
2021/10/20 10:42:18;;;;;;;;;;;;;;;17.50;79.97;99749.31;1751207;81;20233;-83
2021/10/20 10:44:48;;;;;;;;;;;;;;;17.54;79.52;99755.88;1750204;81;20090;-81
2021/10/20 10:47:26;;;;;;;;;;;;;;;17.41;80.08;99736.71;1750233;81;20157;-82
2021/10/20 10:49:53;;;;;;;;;;;;;;;17.56;79.89;99731.64;1747833;81;20118;-83
2021/10/20 10:52:29;;;;;;;;;;;;;;;17.44;79.56;99739.48;1744730;81;20142;-83
2021/10/20 10:55:18;;;;;;;;;;;;;;;17.47;80.08;99733.72;1748913;81;20172;-83
2021/10/20 10:57:54;;;;;;;;;;;;;;;17.63;79.60;99730.27;1748614;80;20227;-86
2021/10/20 11:00:24;;;;;;;;;;;;;;;17.77;79.29;99722.48;1748322;81;20695;-80
2021/10/20 11:02:55;;;;;;;;;;;;;;;17.76;79.48;99727.02;1747926;81;20675;-80
2021/10/20 11:05:24;;;;;;;;;;;;;;;17.70;78.98;99723.87;1739649;81;20121;-80
2021/10/20 11:07:50;;;;;;;;;;;;;;;17.80;78.85;99727.40;1722111;82;20177;-83
2021/10/20 11:10:16;;;;;;;;;;;;;;;17.67;78.64;99712.80;1719534;82;20198;-83
2021/10/20 11:12:51;;;;;;;;;;;;;;;17.74;78.24;99712.23;1711720;82;20255;-87
2021/10/20 11:15:19;;;;;;;;;;;;;;;17.93;78.30;99714.01;1715776;82;21097;-82
2021/10/20 11:17:45;;;;;;;;;;;;;;;17.99;77.69;99711.50;1714880;82;20324;-84
2021/10/20 11:20:13;;;;;;;;;;;;;;;18.04;77.51;99713.03;1712031;82;20221;-83
2021/10/20 11:22:40;;;;;;;;;;;;;;;18.04;76.84;99706.34;1712114;82;20184;-86
2021/10/20 11:25:10;;;;;;;;;;;;;;;18.14;76.69;99695.98;1717976;82;20228;-84
2021/10/20 11:27:37;;;;;;;;;;;;;;;18.16;76.45;99703.25;1718104;82;22080;-82
2021/10/20 11:30:04;;;;;;;;;;;;;;;18.16;76.50;99692.56;1718367;82;20150;-82
2021/10/20 11:32:29;;;;;;;;;;;;;;;18.19;76.70;99687.31;1720852;81;20233;-81
2021/10/20 11:34:56;;;;;;;;;;;;;;;18.22;76.16;99686.88;1684900;82;20546;-83
2021/10/20 11:37:24;;;;;;;;;;;;;;;18.21;75.87;99680.72;1714815;82;20212;-84
2021/10/20 11:39:58;;;;;;;;;;;;;;;18.35;75.97;99676.09;1713305;82;21159;-82
2021/10/20 11:42:25;;;;;;;;;;;;;;;18.43;76.11;99679.00;1709562;82;20161;-80
2021/10/20 11:44:52;;;;;;;;;;;;;;;18.46;75.36;99669.20;1716706;82;20169;-80
2021/10/20 11:47:20;;;;;;;;;;;;;;;18.51;75.00;99668.02;1715322;82;20256;-80
2021/10/20 11:49:50;;;;;;;;;;;;;;;18.59;74.45;99659.70;1721256;82;20628;-81
2021/10/20 11:52:19;;;;;;;;;;;;;;;18.60;74.08;99646.64;1712435;82;22065;-80
2021/10/20 11:54:45;;;;;;;;;;;;;;;18.58;73.98;99646.05;1718563;82;20225;-79
2021/10/20 11:57:12;;;;;;;;;;;;;;;18.51;74.14;99641.28;1720042;82;20234;-80
2021/10/20 11:59:38;;;;;;;;;;;;;;;18.69;73.85;99628.45;1689522;82;20464;-81
2021/10/20 12:02:08;;;;;;;;;;;;;;;18.76;73.80;99623.84;1714669;82;20523;-81
2021/10/20 12:04:37;;;;;;;;;;;;;;;18.78;73.78;99625.78;1711616;82;20193;-79
2021/10/20 12:07:04;;;;;;;;;;;;;;;18.85;73.60;99616.37;1727949;82;20118;-80
2021/10/20 12:09:31;;;;;;;;;;;;;;;18.90;73.23;99629.88;1731831;82;20145;-81
2021/10/20 12:11:59;;;;;;;;;;;;;;;18.98;72.95;99616.19;1713791;82;20766;-82
2021/10/20 12:14:32;;;;;;;;;;;;;;;19.08;72.53;99618.86;1732719;80;20202;-83
2021/10/20 12:17:00;;;;;;;;;;;;;;;19.06;71.90;99623.09;1724757;81;20190;-82
2021/10/20 12:19:29;;;;;;;;;;;;;;;19.00;71.78;99614.13;1709411;82;20207;-81
2021/10/20 12:21:55;;;;;;;;;;;;;;;19.07;71.78;99607.88;1707362;82;20479;-82
2021/10/20 12:24:23;;;;;;;;;;;;;;;19.15;72.01;99607.56;1732916;82;20133;-82
2021/10/20 12:26:52;;;;;;;;;;;;;;;19.16;71.53;99601.17;1711752;82;20198;-79
2021/10/20 12:29:19;;;;;;;;;;;;;;;19.18;71.09;99605.77;1711788;82;20134;-84
2021/10/20 12:31:44;;;;;;;;;;;;;;;19.28;71.10;99602.04;1728177;82;20197;-83
2021/10/20 12:34:10;;;;;;;;;;;;;;;19.29;70.78;99594.28;1729684;81;20160;-81
2021/10/20 12:36:36;;;;;;;;;;;;;;;19.41;70.11;99596.20;1731735;81;20140;-82
2021/10/20 12:39:03;;;;;;;;;;;;;;;19.48;69.79;99596.41;1731029;80;20214;-81
2021/10/20 12:41:37;;;;;;;;;;;;;;;19.53;69.56;99574.30;1711304;82;21241;-80